createdAt,value
2023-01-27T00:01:18.200Z,90.79
2023-01-27T00:03:47.946Z,90.63
2023-01-27T00:06:14.859Z,90.77
2023-01-27T00:08:41.768Z,90.44
2023-01-27T00:11:29.375Z,90.39
2023-01-27T00:13:56.344Z,90.08
2023-01-27T00:16:23.180Z,90.19
2023-01-27T00:18:49.845Z,90.04
2023-01-27T00:21:34.984Z,90.00
2023-01-27T00:24:21.645Z,89.97
2023-01-27T00:26:48.552Z,90.00
2023-01-27T00:29:15.422Z,89.88
2023-01-27T00:32:00.394Z,89.94
2023-01-27T00:34:27.078Z,89.56
2023-01-27T00:36:53.674Z,89.72
2023-01-27T00:39:21.692Z,89.37
2023-01-27T00:41:48.471Z,89.51
2023-01-27T00:44:15.121Z,89.60
2023-01-27T00:46:42.493Z,89.52
2023-01-27T00:49:10.561Z,89.33
2023-01-27T00:51:37.109Z,89.05
2023-01-27T00:54:04.150Z,89.29
2023-01-27T00:56:33.021Z,89.11
2023-01-27T00:58:59.976Z,89.02
2023-01-27T01:01:27.556Z,88.92
2023-01-27T01:03:54.414Z,88.75
2023-01-27T01:06:21.803Z,88.92
2023-01-27T01:08:51.282Z,88.95
2023-01-27T01:11:19.615Z,89.02
2023-01-27T01:13:47.038Z,88.96
2023-01-27T01:16:24.761Z,88.71
2023-01-27T01:18:53.030Z,88.71
2023-01-27T01:21:19.550Z,88.92
2023-01-27T01:23:49.280Z,88.88
2023-01-27T01:26:17.553Z,88.85
2023-01-27T01:28:45.118Z,88.91
2023-01-27T01:31:18.094Z,88.93
2023-01-27T01:33:45.588Z,89.08
2023-01-27T01:36:17.081Z,89.15
2023-01-27T01:38:49.133Z,88.93
2023-01-27T01:41:19.201Z,88.95
2023-01-27T01:43:48.541Z,88.82
2023-01-27T01:46:15.551Z,88.81
2023-01-27T01:48:50.546Z,88.61
2023-01-27T01:51:23.593Z,88.37
2023-01-27T01:54:01.722Z,88.46
2023-01-27T01:56:37.801Z,88.45
2023-01-27T01:59:12.098Z,88.39
2023-01-27T02:01:41.507Z,88.49
2023-01-27T02:04:17.097Z,88.53
2023-01-27T02:06:53.036Z,88.52
2023-01-27T02:09:21.643Z,88.24
2023-01-27T02:11:48.477Z,88.00
2023-01-27T02:14:17.574Z,87.85
2023-01-27T02:16:44.828Z,88.27
2023-01-27T02:19:24.807Z,88.09
2023-01-27T02:21:55.642Z,88.19
2023-01-27T02:24:30.626Z,88.31
2023-01-27T02:26:57.555Z,88.39
2023-01-27T02:29:25.724Z,88.49
2023-01-27T02:31:56.514Z,88.31
2023-01-27T02:34:30.982Z,88.40
2023-01-27T02:37:02.825Z,88.58
2023-01-27T02:39:37.436Z,88.66
2023-01-27T02:42:07.891Z,88.73
2023-01-27T02:44:34.809Z,88.52
2023-01-27T02:47:06.098Z,88.93
2023-01-27T02:49:33.089Z,88.84
2023-01-27T02:52:02.309Z,88.91
2023-01-27T02:54:30.362Z,88.92
2023-01-27T02:56:57.186Z,88.90
2023-01-27T02:59:24.027Z,88.72
2023-01-27T03:01:50.811Z,88.70
2023-01-27T03:04:17.671Z,88.97
2023-01-27T03:06:44.572Z,88.83
2023-01-27T03:09:11.551Z,89.11
2023-01-27T03:11:56.975Z,89.07
2023-01-27T03:14:42.253Z,89.10
2023-01-27T03:17:27.427Z,89.10
2023-01-27T03:19:55.305Z,89.37
2023-01-27T03:22:23.300Z,89.30
2023-01-27T03:24:49.742Z,89.23
2023-01-27T03:27:16.373Z,89.11
2023-01-27T03:29:57.296Z,89.12
2023-01-27T03:32:26.956Z,89.00
2023-01-27T03:34:54.284Z,88.76
2023-01-27T03:37:39.063Z,88.99
2023-01-27T03:40:25.177Z,88.88
2023-01-27T03:43:13.774Z,88.82
2023-01-27T03:46:00.654Z,88.70
2023-01-27T03:48:28.678Z,88.75
2023-01-27T03:50:59.295Z,88.57
2023-01-27T03:53:31.243Z,88.60
2023-01-27T03:55:58.070Z,88.45
2023-01-27T03:58:26.427Z,88.21
2023-01-27T04:00:54.850Z,87.82
2023-01-27T04:03:41.501Z,87.57
2023-01-27T04:06:29.891Z,87.38
2023-01-27T04:08:57.740Z,87.39
2023-01-27T04:11:43.471Z,87.08
2023-01-27T04:14:11.459Z,87.03
2023-01-27T04:16:38.885Z,87.25
2023-01-27T04:19:07.287Z,86.81
2023-01-27T04:21:36.795Z,86.67
2023-01-27T04:24:04.874Z,86.68
2023-01-27T04:26:34.772Z,86.73
2023-01-27T04:29:22.304Z,86.61
2023-01-27T04:31:49.588Z,86.45
2023-01-27T04:34:16.840Z,86.23
2023-01-27T04:36:45.700Z,85.97
2023-01-27T04:39:15.946Z,85.83
2023-01-27T04:41:45.648Z,85.65
2023-01-27T04:44:15.485Z,85.43
2023-01-27T04:46:42.296Z,85.40
2023-01-27T04:49:08.886Z,85.37
2023-01-27T04:51:35.635Z,85.16
2023-01-27T04:54:03.996Z,85.04
2023-01-27T04:56:32.765Z,84.97
2023-01-27T04:59:12.310Z,84.76
2023-01-27T05:01:39.245Z,84.76
2023-01-27T05:04:06.155Z,84.77
2023-01-27T05:06:33.378Z,84.79
2023-01-27T05:09:01.673Z,84.88
2023-01-27T05:11:28.288Z,84.87
2023-01-27T05:13:55.091Z,84.67
2023-01-27T05:16:24.446Z,84.42
2023-01-27T05:18:53.127Z,84.50
2023-01-27T05:21:25.716Z,84.71
2023-01-27T05:23:54.796Z,84.60
2023-01-27T05:26:25.063Z,84.61
2023-01-27T05:28:54.405Z,84.00
2023-01-27T05:31:27.111Z,83.86
2023-01-27T05:33:55.397Z,83.81
2023-01-27T05:36:25.070Z,83.95
2023-01-27T05:38:52.706Z,84.35
2023-01-27T05:41:19.837Z,84.20
2023-01-27T05:43:56.125Z,84.24
2023-01-27T05:46:25.914Z,84.42
2023-01-27T05:48:54.685Z,84.33
2023-01-27T05:51:25.936Z,84.32
2023-01-27T05:53:54.095Z,84.24
2023-01-27T05:56:26.536Z,83.91
2023-01-27T05:58:58.037Z,83.99
2023-01-27T06:01:30.308Z,83.88
2023-01-27T06:03:57.688Z,83.55
2023-01-27T06:06:28.932Z,83.40
2023-01-27T06:08:55.586Z,83.20
2023-01-27T06:11:24.465Z,83.48
2023-01-27T06:13:53.031Z,83.49
2023-01-27T06:16:21.570Z,83.59
2023-01-27T06:18:48.892Z,83.67
2023-01-27T06:21:16.702Z,83.21
2023-01-27T06:23:43.395Z,83.52
2023-01-27T06:26:13.833Z,83.32
2023-01-27T06:28:40.609Z,83.50
2023-01-27T06:31:16.073Z,83.47
2023-01-27T06:33:43.243Z,83.11
2023-01-27T06:36:12.714Z,83.11
2023-01-27T06:38:39.435Z,83.11
2023-01-27T06:41:06.662Z,82.84
2023-01-27T06:43:33.861Z,82.70
2023-01-27T06:46:01.372Z,82.81
2023-01-27T06:48:32.027Z,82.95
2023-01-27T06:50:58.824Z,82.44
2023-01-27T06:53:25.768Z,82.44
2023-01-27T06:56:02.531Z,82.28
2023-01-27T06:58:29.645Z,82.41
2023-01-27T07:00:57.548Z,82.15
2023-01-27T07:03:25.255Z,81.96
2023-01-27T07:05:53.771Z,82.01
2023-01-27T07:08:20.652Z,81.94
2023-01-27T07:10:52.462Z,81.66
2023-01-27T07:13:20.635Z,81.61
2023-01-27T07:15:53.592Z,81.67
2023-01-27T07:18:20.377Z,81.23
2023-01-27T07:20:46.893Z,81.31
2023-01-27T07:23:16.029Z,81.14
2023-01-27T07:25:44.701Z,81.09
2023-01-27T07:28:12.616Z,81.04
2023-01-27T07:30:39.501Z,81.15
2023-01-27T07:33:12.401Z,80.93
2023-01-27T07:35:39.759Z,81.18
2023-01-27T07:38:07.142Z,81.20
2023-01-27T07:40:34.900Z,81.19
2023-01-27T07:43:03.082Z,81.32
2023-01-27T07:45:31.488Z,81.19
2023-01-27T07:48:05.157Z,81.53
2023-01-27T07:50:32.284Z,81.28
2023-01-27T07:53:03.780Z,81.71
2023-01-27T07:55:33.400Z,81.83
2023-01-27T07:58:00.411Z,82.07
2023-01-27T08:00:29.678Z,81.41
2023-01-27T08:03:00.439Z,80.32
2023-01-27T08:05:28.214Z,77.38
2023-01-27T08:07:58.579Z,76.46
2023-01-27T08:10:25.533Z,75.51
2023-01-27T08:12:56.483Z,73.85
2023-01-27T08:15:23.384Z,70.83
2023-01-27T08:17:54.837Z,70.59
2023-01-27T08:20:25.099Z,69.33
2023-01-27T08:22:52.522Z,70.20
2023-01-27T08:25:19.446Z,69.74
2023-01-27T08:27:50.020Z,68.86
2023-01-27T08:30:17.291Z,70.11
2023-01-27T08:32:44.115Z,70.18
2023-01-27T08:35:10.985Z,70.46
2023-01-27T08:37:37.922Z,72.60
2023-01-27T08:40:04.824Z,70.79
2023-01-27T08:42:32.739Z,73.10
2023-01-27T08:45:00.481Z,71.76
2023-01-27T08:47:28.656Z,72.25
2023-01-27T08:49:55.226Z,73.56
2023-01-27T08:52:24.402Z,71.58
2023-01-27T08:54:50.870Z,70.15
2023-01-27T08:57:17.745Z,67.28
2023-01-27T08:59:48.876Z,67.07
2023-01-27T09:02:15.523Z,67.67
2023-01-27T09:04:46.901Z,66.72
2023-01-27T09:07:18.619Z,67.29
2023-01-27T09:09:48.704Z,68.87
2023-01-27T09:12:15.860Z,70.42
2023-01-27T09:14:42.530Z,72.80
2023-01-27T09:17:10.708Z,74.21
2023-01-27T09:19:37.581Z,75.16
2023-01-27T09:22:05.566Z,75.41
2023-01-27T09:24:32.373Z,73.50
2023-01-27T09:27:00.984Z,72.99
2023-01-27T09:29:28.154Z,73.78
2023-01-27T09:31:56.286Z,74.33
2023-01-27T09:34:23.172Z,75.27
2023-01-27T09:36:55.083Z,76.27
2023-01-27T09:39:23.283Z,77.46
2023-01-27T09:41:55.688Z,77.51
2023-01-27T09:45:02.056Z,77.84
2023-01-27T09:47:47.689Z,78.36
2023-01-27T09:50:26.642Z,78.36
2023-01-27T09:53:16.874Z,78.36
2023-01-27T09:56:04.069Z,78.48
2023-01-27T09:59:04.820Z,78.69
2023-01-27T10:01:43.540Z,79.19
2023-01-27T10:04:41.181Z,79.48
2023-01-27T10:07:13.665Z,79.57
2023-01-27T10:09:49.689Z,80.06
2023-01-27T10:12:37.823Z,80.17
2023-01-27T10:15:10.365Z,80.39
2023-01-27T10:18:01.759Z,80.20
2023-01-27T10:21:00.884Z,80.41
2023-01-27T10:23:51.769Z,80.62
2023-01-27T10:26:44.632Z,80.60
2023-01-27T10:29:29.967Z,80.60
2023-01-27T10:32:01.629Z,80.64
2023-01-27T10:34:36.100Z,80.73
2023-01-27T10:37:29.536Z,80.72
2023-01-27T10:40:31.546Z,80.91
2023-01-27T10:43:07.101Z,80.92
2023-01-27T10:45:42.374Z,81.04
2023-01-27T10:48:33.901Z,80.88
2023-01-27T10:51:37.963Z,81.12
2023-01-27T10:54:08.581Z,81.38
2023-01-27T10:56:59.765Z,81.58
2023-01-27T10:59:40.969Z,81.26
2023-01-27T11:02:37.844Z,81.02
2023-01-27T11:05:13.656Z,81.14
2023-01-27T11:07:57.393Z,80.86
2023-01-27T11:10:35.658Z,80.83
2023-01-27T11:13:04.082Z,80.82
2023-01-27T11:15:34.466Z,80.64
2023-01-27T11:18:23.778Z,80.44
2023-01-27T11:20:54.607Z,80.38
2023-01-27T11:23:27.375Z,80.54
2023-01-27T11:26:06.044Z,80.28
2023-01-27T11:28:44.889Z,80.40
2023-01-27T11:31:59.379Z,80.24
2023-01-27T11:34:41.385Z,80.13
2023-01-27T11:37:39.946Z,79.66
2023-01-27T11:40:30.328Z,79.89
2023-01-27T11:43:01.159Z,80.11
2023-01-27T11:45:33.614Z,79.80
2023-01-27T11:48:02.702Z,80.10
2023-01-27T11:50:36.723Z,80.02
2023-01-27T11:53:30.100Z,80.18
2023-01-27T11:56:04.201Z,80.02
2023-01-27T11:58:39.032Z,80.03
2023-01-27T12:01:20.054Z,80.41
2023-01-27T12:04:11.937Z,80.46
2023-01-27T12:06:45.157Z,79.80
2023-01-27T12:09:38.162Z,79.56
2023-01-27T12:12:17.143Z,79.49
2023-01-27T12:14:58.988Z,79.43
2023-01-27T12:17:35.307Z,79.33
2023-01-27T12:20:22.410Z,78.93
2023-01-27T12:22:55.330Z,79.35
2023-01-27T12:25:31.452Z,79.08
2023-01-27T12:28:05.660Z,78.91
2023-01-27T12:30:39.119Z,78.62
2023-01-27T12:33:20.061Z,78.79
2023-01-27T12:35:50.136Z,78.90
2023-01-27T12:38:21.106Z,79.07
2023-01-27T12:40:50.774Z,79.32
2023-01-27T12:43:20.506Z,79.43
2023-01-27T12:46:04.227Z,79.79
2023-01-27T12:48:33.639Z,79.84
2023-01-27T12:51:15.695Z,80.08
2023-01-27T12:53:44.583Z,80.34
2023-01-27T12:56:22.943Z,80.42
2023-01-27T12:58:55.608Z,80.43
2023-01-27T13:01:35.183Z,80.36
2023-01-27T13:04:16.725Z,79.88
2023-01-27T13:06:48.113Z,79.86
2023-01-27T13:09:33.674Z,79.11
2023-01-27T13:12:05.925Z,78.91
2023-01-27T13:14:40.934Z,78.51
2023-01-27T13:17:28.341Z,78.58
2023-01-27T13:20:01.967Z,78.29
2023-01-27T13:22:33.303Z,78.11
2023-01-27T13:25:06.195Z,78.28
2023-01-27T13:27:40.102Z,78.63
2023-01-27T13:30:20.328Z,78.54
2023-01-27T13:32:51.749Z,78.73
2023-01-27T13:35:41.896Z,78.12
2023-01-27T13:38:26.487Z,78.16
2023-01-27T13:40:54.341Z,78.32
2023-01-27T13:43:39.937Z,77.88
2023-01-27T13:46:26.169Z,78.01
2023-01-27T13:48:59.195Z,77.75
2023-01-27T13:51:29.694Z,78.16
2023-01-27T13:54:02.780Z,77.50
2023-01-27T13:57:08.204Z,76.88
2023-01-27T13:59:40.522Z,76.99
2023-01-27T14:02:07.222Z,76.63
2023-01-27T14:04:36.853Z,76.83
2023-01-27T14:07:28.227Z,76.89
2023-01-27T14:10:22.140Z,76.80
2023-01-27T14:13:03.770Z,76.78
2023-01-27T14:15:50.540Z,77.09
2023-01-27T14:18:31.247Z,77.11
2023-01-27T14:21:21.020Z,77.08
2023-01-27T14:23:54.492Z,76.99
2023-01-27T14:26:48.610Z,77.58
2023-01-27T14:29:27.569Z,77.54
2023-01-27T14:31:59.393Z,77.65
2023-01-27T14:34:41.042Z,77.24
2023-01-27T14:37:22.388Z,77.66
2023-01-27T14:40:09.231Z,77.63
2023-01-27T14:43:03.155Z,78.05
2023-01-27T14:46:03.390Z,78.30
2023-01-27T14:48:41.723Z,78.33
2023-01-27T14:51:13.355Z,78.32
2023-01-27T14:54:01.703Z,78.48
2023-01-27T14:56:59.439Z,78.81
2023-01-27T14:59:38.227Z,78.79
2023-01-27T15:02:35.938Z,78.84
2023-01-27T15:05:37.143Z,78.75
2023-01-27T15:08:34.564Z,78.70
2023-01-27T15:11:32.580Z,78.80
2023-01-27T15:14:08.138Z,78.83
2023-01-27T15:17:08.774Z,78.76
2023-01-27T15:19:47.655Z,78.67
2023-01-27T15:22:20.850Z,78.92
2023-01-27T15:24:59.695Z,78.80
2023-01-27T15:27:29.062Z,78.93
2023-01-27T15:29:55.726Z,79.25
2023-01-27T15:32:28.467Z,79.46
2023-01-27T15:35:30.518Z,79.48
2023-01-27T15:38:08.628Z,79.35
2023-01-27T15:41:17.858Z,79.53
2023-01-27T15:44:15.555Z,79.50
2023-01-27T15:46:50.068Z,79.50
2023-01-27T15:49:24.846Z,79.89
2023-01-27T15:51:55.134Z,79.77
2023-01-27T15:54:30.426Z,79.84
2023-01-27T15:56:58.501Z,79.82
2023-01-27T15:59:31.795Z,79.69
2023-01-27T16:02:29.196Z,79.97
2023-01-27T16:05:07.529Z,79.98
2023-01-27T16:07:38.039Z,80.04
2023-01-27T16:10:07.807Z,80.11
2023-01-27T16:12:45.176Z,80.41
2023-01-27T16:15:15.004Z,80.50
2023-01-27T16:18:02.801Z,80.56
2023-01-27T16:20:32.572Z,80.79
2023-01-27T16:23:11.334Z,80.79
2023-01-27T16:25:44.461Z,81.02
2023-01-27T16:28:19.392Z,80.95
2023-01-27T16:30:49.295Z,80.99
2023-01-27T16:33:38.303Z,81.00
2023-01-27T16:36:17.043Z,80.81
2023-01-27T16:38:45.648Z,80.66
2023-01-27T16:41:20.123Z,80.80
2023-01-27T16:44:11.235Z,80.72
2023-01-27T16:46:41.673Z,80.71
2023-01-27T16:49:37.379Z,80.18
2023-01-27T16:52:08.495Z,79.90
2023-01-27T16:54:40.616Z,79.67
2023-01-27T16:57:11.217Z,79.80
2023-01-27T16:59:40.466Z,79.93
2023-01-27T17:02:30.498Z,80.12
2023-01-27T17:05:01.324Z,80.38
2023-01-27T17:07:28.147Z,80.35
2023-01-27T17:10:00.381Z,80.27
2023-01-27T17:12:31.720Z,80.16
2023-01-27T17:15:00.000Z,80.26
2023-01-27T17:17:29.506Z,80.08
2023-01-27T17:20:05.448Z,79.86
2023-01-27T17:22:39.545Z,79.78
2023-01-27T17:25:22.349Z,79.47
2023-01-27T17:27:48.870Z,79.67
2023-01-27T17:30:39.861Z,79.45
2023-01-27T17:33:15.815Z,79.44
2023-01-27T17:35:44.062Z,79.78
2023-01-27T17:38:24.876Z,79.39
2023-01-27T17:40:57.382Z,79.36
2023-01-27T17:43:40.517Z,79.67
2023-01-27T17:46:19.814Z,79.66
2023-01-27T17:49:08.314Z,79.97
2023-01-27T17:51:39.448Z,79.99
2023-01-27T17:54:19.322Z,80.07
2023-01-27T17:56:46.490Z,79.95
2023-01-27T17:59:21.212Z,79.77
2023-01-27T18:01:52.080Z,79.58
2023-01-27T18:04:23.386Z,79.46
2023-01-27T18:06:51.298Z,79.13
2023-01-27T18:09:21.089Z,79.21
2023-01-27T18:11:56.918Z,79.10
2023-01-27T18:14:24.193Z,79.28
2023-01-27T18:17:22.567Z,79.46
2023-01-27T18:19:51.716Z,79.63
2023-01-27T18:22:19.442Z,79.68
2023-01-27T18:24:55.857Z,79.69
2023-01-27T18:27:24.359Z,79.61
2023-01-27T18:29:54.444Z,79.79
2023-01-27T18:32:25.700Z,79.63
2023-01-27T18:34:58.444Z,79.84
2023-01-27T18:37:25.078Z,80.15
2023-01-27T18:39:55.238Z,80.36
2023-01-27T18:42:24.017Z,80.41
2023-01-27T18:44:52.147Z,80.50
2023-01-27T18:47:20.870Z,80.75
2023-01-27T18:50:14.865Z,80.77
2023-01-27T18:52:42.476Z,80.75
2023-01-27T18:55:26.406Z,80.94
2023-01-27T18:57:56.028Z,80.86
2023-01-27T19:00:25.639Z,80.98
2023-01-27T19:02:56.363Z,80.97
2023-01-27T19:05:26.541Z,81.17
2023-01-27T19:07:53.384Z,81.17
2023-01-27T19:10:28.635Z,81.26
2023-01-27T19:12:58.632Z,81.52
2023-01-27T19:15:31.906Z,81.29
2023-01-27T19:18:07.303Z,81.39
2023-01-27T19:20:36.137Z,81.56
2023-01-27T19:23:02.940Z,81.73
2023-01-27T19:25:31.037Z,81.72
2023-01-27T19:28:07.367Z,81.82
2023-01-27T19:30:38.433Z,81.81
2023-01-27T19:33:17.506Z,81.89
2023-01-27T19:35:49.103Z,82.10
2023-01-27T19:38:15.978Z,82.30
2023-01-27T19:40:43.279Z,82.17
2023-01-27T19:43:15.048Z,82.22
2023-01-27T19:45:44.472Z,82.28
2023-01-27T19:48:20.030Z,82.07
2023-01-27T19:50:47.647Z,81.97
2023-01-27T19:53:17.399Z,81.90
2023-01-27T19:55:45.566Z,82.31
2023-01-27T19:58:32.804Z,82.01
2023-01-27T20:00:59.439Z,82.09
2023-01-27T20:03:27.081Z,82.24
2023-01-27T20:05:54.121Z,82.18
2023-01-27T20:08:21.648Z,82.36
2023-01-27T20:10:48.316Z,82.36
2023-01-27T20:13:19.304Z,82.41
2023-01-27T20:15:47.327Z,82.54
2023-01-27T20:18:18.837Z,82.53
2023-01-27T20:20:50.593Z,82.80
2023-01-27T20:23:17.329Z,82.79
2023-01-27T20:25:43.857Z,82.76
2023-01-27T20:28:12.444Z,82.81
2023-01-27T20:30:38.995Z,82.87
2023-01-27T20:33:05.572Z,82.92
2023-01-27T20:35:32.387Z,83.05
2023-01-27T20:37:59.129Z,82.96
2023-01-27T20:40:29.591Z,82.92
2023-01-27T20:42:56.595Z,82.80
2023-01-27T20:45:23.464Z,82.86
2023-01-27T20:47:52.134Z,82.89
2023-01-27T20:50:19.907Z,82.95
2023-01-27T20:52:50.184Z,82.80
2023-01-27T20:55:19.847Z,82.79
2023-01-27T20:57:47.475Z,82.98
2023-01-27T21:00:20.534Z,82.80
2023-01-27T21:02:47.974Z,82.78
2023-01-27T21:05:17.832Z,83.02
2023-01-27T21:07:45.169Z,82.95
2023-01-27T21:10:12.002Z,82.91
2023-01-27T21:12:38.537Z,82.79
2023-01-27T21:15:09.719Z,82.88
2023-01-27T21:17:39.551Z,82.92
2023-01-27T21:20:07.039Z,83.11
2023-01-27T21:22:34.547Z,83.06
2023-01-27T21:25:01.274Z,82.74
2023-01-27T21:27:27.744Z,82.86
2023-01-27T21:29:54.278Z,82.80
2023-01-27T21:32:23.129Z,82.50
2023-01-27T21:34:51.539Z,82.54
2023-01-27T21:37:18.141Z,82.52
2023-01-27T21:39:44.866Z,82.46
2023-01-27T21:42:14.744Z,82.49
2023-01-27T21:45:00.318Z,82.32
2023-01-27T21:47:27.022Z,82.43
2023-01-27T21:50:03.318Z,82.46
2023-01-27T21:52:41.966Z,82.62
2023-01-27T21:55:11.232Z,82.54
2023-01-27T21:57:38.597Z,82.59
2023-01-27T22:00:08.321Z,82.32
2023-01-27T22:02:36.272Z,82.13
2023-01-27T22:05:02.992Z,82.28
2023-01-27T22:07:38.442Z,81.99
2023-01-27T22:10:08.157Z,82.30
2023-01-27T22:12:35.000Z,82.30
2023-01-27T22:15:02.048Z,81.93
2023-01-27T22:17:31.088Z,82.11
2023-01-27T22:19:57.958Z,82.11
2023-01-27T22:22:24.809Z,82.21
2023-01-27T22:24:51.641Z,82.09
2023-01-27T22:27:19.374Z,82.36
2023-01-27T22:29:48.552Z,82.45
2023-01-27T22:32:18.459Z,82.21
2023-01-27T22:34:46.144Z,82.07
2023-01-27T22:37:12.611Z,82.40
2023-01-27T22:39:42.513Z,82.50
2023-01-27T22:42:09.945Z,82.66
2023-01-27T22:44:36.490Z,82.61
2023-01-27T22:47:05.778Z,82.48
2023-01-27T22:49:34.714Z,82.52
2023-01-27T22:52:01.703Z,82.54
2023-01-27T22:54:30.583Z,82.31
2023-01-27T22:57:01.057Z,82.33
2023-01-27T22:59:27.901Z,82.56
2023-01-27T23:01:56.039Z,82.50
2023-01-27T23:04:22.670Z,82.44
2023-01-27T23:06:51.725Z,81.96
2023-01-27T23:09:18.527Z,82.17
2023-01-27T23:11:45.357Z,82.21
2023-01-27T23:14:15.145Z,82.20
2023-01-27T23:16:41.775Z,82.33
2023-01-27T23:19:08.518Z,82.06
2023-01-27T23:21:35.964Z,82.26
2023-01-27T23:24:07.308Z,82.03
2023-01-27T23:26:34.133Z,81.90
2023-01-27T23:29:23.061Z,82.12
2023-01-27T23:31:51.252Z,82.21
2023-01-27T23:34:23.541Z,81.84
2023-01-27T23:36:50.466Z,81.71
2023-01-27T23:39:17.231Z,81.69
2023-01-27T23:41:43.794Z,81.65
2023-01-27T23:44:12.447Z,81.68
2023-01-27T23:46:39.399Z,81.80
2023-01-27T23:49:06.612Z,81.83
2023-01-27T23:51:33.744Z,82.04
2023-01-27T23:54:00.523Z,82.01
2023-01-27T23:56:27.039Z,81.95
2023-01-27T23:58:53.960Z,81.81
